Time;durP1;ratioP1;P1;durP2;ratioP2;P2;SDS_P1;SDS_P2;PMS_P1;PMS_P2;Temp;Humidity;BMP_temperature;BMP_pressure;BME280_temperature;BME280_humidity;BME280_pressure;Samples;Min_cycle;Max_cycle;Signal;HPM_P1;HPM_P2
2021/12/17 00:01:44;;;;;;;152.80;24.88;;;8.40;99.90;;;;;;5072508;28;20125;-75
2021/12/17 00:04:25;;;;;;;116.35;22.83;;;8.40;99.90;;;;;;5072956;28;20045;-75
2021/12/17 00:06:50;;;;;;;97.72;20.85;;;8.40;99.90;;;;;;5055255;28;20097;-75
2021/12/17 00:09:16;;;;;;;139.05;22.80;;;8.40;99.90;;;;;;5055535;28;20535;-75
2021/12/17 00:11:42;;;;;;;96.75;19.52;;;8.40;99.90;;;;;;5059029;28;20052;-75
2021/12/17 00:14:09;;;;;;;131.60;22.50;;;8.40;99.90;;;;;;5057967;28;20119;-75
2021/12/17 00:16:39;;;;;;;142.05;23.73;;;8.40;99.90;;;;;;5076563;28;20067;-75
2021/12/17 00:19:20;;;;;;;143.85;23.50;;;8.40;99.90;;;;;;5058895;28;20060;-75
2021/12/17 00:49:17;;;;;;;173.35;26.48;;;8.30;99.90;;;;;;5008492;28;20046;-75
2021/12/17 00:54:19;;;;;;;140.77;24.50;;;8.30;99.90;;;;;;5059425;28;20040;-75
2021/12/17 00:56:48;;;;;;;122.35;22.73;;;8.30;99.90;;;;;;5075058;28;20039;-75
2021/12/17 00:59:14;;;;;;;164.05;25.08;;;8.30;99.90;;;;;;5058145;28;20044;-75
2021/12/17 01:01:40;;;;;;;155.50;25.23;;;8.30;99.90;;;;;;5058047;28;20106;-75
2021/12/17 01:04:07;;;;;;;120.13;22.55;;;8.30;99.90;;;;;;5075303;28;20063;-75
2021/12/17 01:06:32;;;;;;;125.25;23.20;;;8.30;99.90;;;;;;5075948;28;20048;-75
2021/12/17 01:08:58;;;;;;;127.20;23.85;;;8.30;99.90;;;;;;5075492;28;20040;-75
2021/12/17 01:11:24;;;;;;;100.43;20.80;;;8.30;99.90;;;;;;5074792;28;20056;-75
2021/12/17 01:13:50;;;;;;;101.47;19.85;;;8.30;99.90;;;;;;5058018;28;20048;-75
2021/12/17 01:16:16;;;;;;;73.60;17.63;;;8.30;99.90;;;;;;5057484;28;20048;-75
2021/12/17 01:42:44;;;;;;;82.80;18.70;;;8.20;99.90;;;;;;5057402;28;20068;-75
2021/12/17 01:45:10;;;;;;;81.10;18.75;;;8.20;99.90;;;;;;5074981;28;20040;-75
2021/12/17 01:47:36;;;;;;;80.90;17.98;;;8.20;99.90;;;;;;5056316;28;20123;-75
2021/12/17 01:56:04;;;;;;;88.07;20.07;;;8.20;99.90;;;;;;5056860;28;20052;-75
2021/12/17 02:01:15;;;;;;;62.72;16.60;;;8.20;99.90;;;;;;5056302;28;20059;-75
2021/12/17 02:03:41;;;;;;;83.70;19.42;;;8.20;99.90;;;;;;5074929;28;20040;-75
2021/12/17 02:06:07;;;;;;;86.72;18.77;;;8.20;99.90;;;;;;5074603;28;20063;-75
2021/12/17 02:08:33;;;;;;;79.28;19.20;;;8.20;99.90;;;;;;5055970;28;20051;-75
2021/12/17 02:32:25;;;;;;;153.88;24.50;;;8.20;99.90;;;;;;5073396;28;20542;-75
2021/12/17 02:37:28;;;;;;;81.47;19.25;;;8.20;99.90;;;;;;5074921;28;20423;-75
2021/12/17 02:40:15;;;;;;;65.03;17.88;;;8.20;99.90;;;;;;5074332;28;20041;-75
2021/12/17 02:45:34;;;;;;;62.03;17.88;;;8.20;99.90;;;;;;5056541;28;20411;-75
2021/12/17 02:48:18;;;;;;;57.05;17.00;;;8.20;99.90;;;;;;5055762;28;20060;-75
2021/12/17 02:50:56;;;;;;;125.40;22.13;;;8.30;99.90;;;;;;5073535;28;20048;-75
2021/12/17 02:53:23;;;;;;;96.15;20.65;;;8.20;99.90;;;;;;5056299;28;20154;-75
2021/12/17 02:56:00;;;;;;;107.22;22.50;;;8.30;99.90;;;;;;5073004;28;20048;-75
2021/12/17 02:58:28;;;;;;;102.28;21.00;;;8.30;99.90;;;;;;5073705;28;20561;-75
2021/12/17 03:00:55;;;;;;;64.05;17.48;;;8.20;99.90;;;;;;5056144;28;20381;-75
2021/12/17 03:03:23;;;;;;;84.22;20.02;;;8.20;99.90;;;;;;5055080;28;20044;-75
2021/12/17 03:05:50;;;;;;;116.53;21.55;;;8.20;99.90;;;;;;5055875;28;20133;-75
2021/12/17 03:08:16;;;;;;;69.13;18.08;;;8.20;99.90;;;;;;5055835;28;20055;-75
2021/12/17 03:10:47;;;;;;;90.07;20.35;;;8.30;99.90;;;;;;5072533;28;20091;-75
2021/12/17 03:13:18;;;;;;;58.47;17.00;;;8.20;99.90;;;;;;5055644;28;20484;-75
2021/12/17 03:15:52;;;;;;;56.65;17.75;;;8.20;99.90;;;;;;5052249;28;20092;-75
2021/12/17 03:23:49;;;;;;;63.50;18.08;;;8.20;99.90;;;;;;5052027;28;20059;-75
2021/12/17 03:26:16;;;;;;;55.25;17.13;;;8.20;99.90;;;;;;5051228;28;20060;-75
2021/12/17 03:28:46;;;;;;;45.92;16.38;;;8.20;99.90;;;;;;5052235;28;20476;-75
2021/12/17 03:31:13;;;;;;;46.78;16.30;;;8.30;99.90;;;;;;5051236;28;20049;-75
2021/12/17 03:33:42;;;;;;;65.18;18.88;;;8.20;99.90;;;;;;5053277;28;20048;-75
2021/12/17 03:36:14;;;;;;;21.63;10.48;;;8.20;99.90;;;;;;5052227;28;20503;-75
2021/12/17 03:38:41;;;;;;;25.98;11.50;;;8.20;99.90;;;;;;5052744;28;20437;-75
2021/12/17 03:41:20;;;;;;;21.75;10.00;;;8.20;99.90;;;;;;5053034;28;20053;-75
2021/12/17 03:43:51;;;;;;;27.70;11.15;;;8.30;99.90;;;;;;5052480;28;20049;-75
2021/12/17 03:46:20;;;;;;;29.70;12.15;;;8.30;99.90;;;;;;5055790;28;20516;-75
2021/12/17 03:48:47;;;;;;;23.65;11.25;;;8.30;99.90;;;;;;5057316;28;20048;-75
2021/12/17 03:51:17;;;;;;;15.40;8.68;;;8.30;99.90;;;;;;5056967;28;20044;-75
2021/12/17 03:53:49;;;;;;;18.75;9.60;;;8.30;99.90;;;;;;5056691;28;20390;-75
2021/12/17 03:56:15;;;;;;;14.68;7.80;;;8.30;99.90;;;;;;5039180;28;20081;-75
2021/12/17 03:58:41;;;;;;;15.50;8.68;;;8.30;99.90;;;;;;5057083;28;20110;-75
2021/12/17 04:01:07;;;;;;;22.23;9.60;;;8.30;99.90;;;;;;5056521;28;20041;-75
2021/12/17 04:03:33;;;;;;;16.63;8.32;;;8.30;99.90;;;;;;5057262;28;20095;-75
2021/12/17 04:06:00;;;;;;;19.60;8.65;;;8.30;99.90;;;;;;5055450;28;20063;-75
2021/12/17 04:08:26;;;;;;;17.20;8.07;;;8.30;99.90;;;;;;5056584;28;20124;-75
2021/12/17 04:10:54;;;;;;;15.27;8.90;;;8.30;99.90;;;;;;5056852;28;20141;-75
2021/12/17 04:16:24;;;;;;;23.77;9.73;;;8.30;99.90;;;;;;5058130;28;20511;-75
2021/12/17 04:18:41;;;;;;;19.15;9.18;;;8.30;99.90;;;;;;5073534;28;20049;-75
2021/12/17 04:21:15;;;;;;;22.98;9.93;;;8.30;99.90;;;;;;5075896;28;20051;-75
2021/12/17 04:23:45;;;;;;;21.15;9.85;;;8.30;99.90;;;;;;5058779;28;20049;-75
2021/12/17 04:26:12;;;;;;;20.85;8.77;;;8.30;99.90;;;;;;5076333;28;20040;-75
2021/12/17 04:28:44;;;;;;;24.60;9.77;;;8.30;99.90;;;;;;5058117;28;20128;-75
2021/12/17 04:31:10;;;;;;;15.55;8.07;;;8.30;99.90;;;;;;5076764;28;20044;-75
2021/12/17 04:33:38;;;;;;;18.80;9.27;;;8.30;99.90;;;;;;5058386;28;20098;-75
2021/12/17 04:36:05;;;;;;;25.42;8.95;;;8.30;99.90;;;;;;5057607;28;20504;-75
2021/12/17 04:38:31;;;;;;;20.70;8.90;;;8.30;99.90;;;;;;5076009;28;20519;-75
2021/12/17 04:41:10;;;;;;;22.83;9.57;;;8.30;99.90;;;;;;5058204;28;20048;-75
2021/12/17 04:43:45;;;;;;;19.48;8.15;;;8.30;99.90;;;;;;5075965;28;20127;-75
2021/12/17 04:59:33;;;;;;;35.13;10.18;;;8.20;99.90;;;;;;5076118;28;20338;-75
2021/12/17 05:02:01;;;;;;;27.00;9.35;;;8.10;99.90;;;;;;5057758;28;20048;-75
2021/12/17 05:04:27;;;;;;;24.70;10.77;;;8.20;99.90;;;;;;5057579;28;20391;-75
2021/12/17 05:06:53;;;;;;;38.90;12.05;;;8.10;99.90;;;;;;5076043;28;20044;-75
2021/12/17 05:09:31;;;;;;;36.90;10.18;;;8.10;99.90;;;;;;5057430;28;20045;-75
2021/12/17 05:20:47;;;;;;;37.95;12.77;;;8.10;99.90;;;;;;5075656;28;20047;-75
2021/12/17 05:23:02;;;;;;;49.40;12.85;;;8.10;99.90;;;;;;5071231;28;20076;-75
2021/12/17 05:25:29;;;;;;;32.30;11.27;;;8.10;99.90;;;;;;5074585;28;20075;-75
2021/12/17 05:28:00;;;;;;;68.18;16.00;;;8.10;99.90;;;;;;5057720;28;20063;-75
2021/12/17 05:30:27;;;;;;;74.38;15.98;;;8.10;99.90;;;;;;5075452;28;20127;-75
2021/12/17 05:32:53;;;;;;;38.38;12.63;;;8.10;99.90;;;;;;5075051;28;20048;-75
2021/12/17 05:35:19;;;;;;;33.50;12.25;;;8.10;99.90;;;;;;5057386;28;20040;-75
2021/12/17 05:37:45;;;;;;;66.85;16.33;;;8.20;99.90;;;;;;5074339;28;20040;-75
2021/12/17 05:40:11;;;;;;;109.78;18.70;;;8.10;99.90;;;;;;5057189;28;20102;-75
2021/12/17 05:42:39;;;;;;;69.70;15.82;;;8.10;99.90;;;;;;5057653;28;20078;-75
2021/12/17 05:45:19;;;;;;;51.03;15.73;;;8.10;99.90;;;;;;5056404;28;20048;-75
2021/12/17 05:47:45;;;;;;;52.33;16.95;;;8.10;99.90;;;;;;5056695;28;20060;-75
2021/12/17 05:50:10;;;;;;;36.65;13.63;;;8.20;99.90;;;;;;5074933;28;20119;-75
2021/12/17 05:52:36;;;;;;;80.30;17.80;;;8.20;99.90;;;;;;5056515;28;20098;-75
2021/12/17 05:55:02;;;;;;;64.95;17.23;;;8.20;99.90;;;;;;5074706;28;20112;-75
2021/12/17 05:57:28;;;;;;;60.45;17.05;;;8.10;99.90;;;;;;5057204;28;20056;-75
2021/12/17 05:59:54;;;;;;;58.97;17.00;;;8.20;99.90;;;;;;5056627;28;20492;-75
2021/12/17 06:02:20;;;;;;;77.80;18.83;;;8.10;99.90;;;;;;5056932;28;20131;-75
2021/12/17 06:04:46;;;;;;;62.40;17.27;;;8.10;99.90;;;;;;5074537;28;20127;-75
2021/12/17 06:07:12;;;;;;;196.90;26.08;;;8.10;99.90;;;;;;5073986;28;20124;-75
2021/12/17 06:09:38;;;;;;;166.73;25.92;;;8.10;99.90;;;;;;5074433;28;20460;-75
2021/12/17 06:12:04;;;;;;;136.50;23.63;;;8.10;99.90;;;;;;5056111;28;20044;-75
2021/12/17 06:14:30;;;;;;;193.00;26.75;;;8.20;99.90;;;;;;5074133;28;20127;-75
2021/12/17 06:16:57;;;;;;;86.78;20.70;;;8.10;99.90;;;;;;5056463;28;20052;-75
2021/12/17 06:19:23;;;;;;;79.18;20.63;;;8.10;99.90;;;;;;5074289;28;20128;-75
2021/12/17 06:21:48;;;;;;;82.60;20.40;;;8.10;99.90;;;;;;5074033;28;20127;-75
2021/12/17 06:24:15;;;;;;;86.60;19.73;;;8.10;99.90;;;;;;5074216;28;20044;-75
2021/12/17 06:26:40;;;;;;;101.13;21.48;;;8.10;99.90;;;;;;5055975;28;20053;-75
2021/12/17 06:29:06;;;;;;;110.03;22.63;;;8.10;99.90;;;;;;5073507;28;20052;-75
2021/12/17 06:31:32;;;;;;;105.70;22.23;;;8.10;99.90;;;;;;5074276;28;20059;-75
2021/12/17 06:33:58;;;;;;;135.75;23.33;;;8.10;99.90;;;;;;5055887;28;20044;-75
2021/12/17 06:36:24;;;;;;;131.52;23.75;;;8.10;99.90;;;;;;5056281;28;20400;-75
2021/12/17 06:38:50;;;;;;;85.63;21.30;;;8.10;99.90;;;;;;5074001;28;20124;-75
2021/12/17 06:41:15;;;;;;;112.40;22.05;;;8.10;99.90;;;;;;5051794;28;20151;-75
2021/12/17 06:43:43;;;;;;;109.75;23.40;;;8.10;99.90;;;;;;5053005;28;20384;-75
2021/12/17 06:46:21;;;;;;;142.43;24.80;;;8.00;99.90;;;;;;5036242;28;20053;-75
2021/12/17 06:48:55;;;;;;;79.45;20.13;;;8.00;99.90;;;;;;5035863;28;20452;-75
2021/12/17 07:08:45;;;;;;;90.22;20.08;;;7.90;99.90;;;;;;5055623;28;20257;-75
2021/12/17 07:21:00;;;;;;;112.13;21.90;;;7.80;99.90;;;;;;5055504;28;20048;-75
2021/12/17 07:23:48;;;;;;;104.03;20.65;;;7.90;99.90;;;;;;5054637;28;20091;-75
2021/12/17 07:34:06;;;;;;;80.65;18.73;;;7.80;99.90;;;;;;5056127;28;20067;-75
2021/12/17 07:36:41;;;;;;;83.35;20.50;;;7.80;99.90;;;;;;5054695;28;20131;-75
2021/12/17 07:39:07;;;;;;;65.80;19.35;;;7.80;99.90;;;;;;5072424;28;20040;-75
2021/12/17 07:41:33;;;;;;;112.65;20.83;;;7.80;99.90;;;;;;5055542;28;20047;-75
2021/12/17 07:44:01;;;;;;;90.47;18.98;;;7.90;99.90;;;;;;5072986;28;20115;-75
2021/12/17 07:46:27;;;;;;;85.88;19.85;;;7.90;99.90;;;;;;5072820;28;20041;-75
2021/12/17 07:48:53;;;;;;;118.38;23.17;;;7.90;99.90;;;;;;5055609;28;20114;-75
2021/12/17 07:51:22;;;;;;;116.15;21.85;;;7.90;99.90;;;;;;5054576;28;20365;-74
2021/12/17 07:53:48;;;;;;;124.82;22.70;;;7.90;99.90;;;;;;5073252;28;20055;-75
2021/12/17 07:56:20;;;;;;;170.05;25.83;;;7.90;99.90;;;;;;5072526;28;20052;-74
2021/12/17 07:58:46;;;;;;;90.10;20.95;;;7.90;99.90;;;;;;5054434;28;20124;-75
2021/12/17 08:01:13;;;;;;;92.22;21.60;;;7.90;99.90;;;;;;5073195;28;20158;-75
2021/12/17 08:03:40;;;;;;;65.65;19.25;;;7.90;99.90;;;;;;5073011;28;20053;-75
2021/12/17 08:06:06;;;;;;;107.65;21.83;;;7.90;99.90;;;;;;5072499;28;20048;-75
2021/12/17 08:08:32;;;;;;;88.43;20.02;;;7.90;99.90;;;;;;5073119;28;20476;-75
2021/12/17 08:10:58;;;;;;;75.90;19.38;;;7.90;99.90;;;;;;5054805;28;20036;-75
2021/12/17 08:13:30;;;;;;;114.85;21.52;;;7.90;99.90;;;;;;5072346;28;20672;-75
2021/12/17 08:26:19;;;;;;;65.75;19.42;;;7.90;99.90;;;;;;5072165;28;20484;-75
2021/12/17 08:31:17;;;;;;;65.63;19.05;;;8.00;99.90;;;;;;5057660;28;20071;-75
2021/12/17 08:33:44;;;;;;;80.90;20.23;;;8.00;99.90;;;;;;5040899;28;20052;-75
2021/12/17 08:36:09;;;;;;;71.80;20.65;;;8.00;99.90;;;;;;5076323;28;20045;-75
2021/12/17 08:38:35;;;;;;;71.70;19.27;;;8.00;99.90;;;;;;5075993;28;20086;-75
2021/12/17 08:41:01;;;;;;;80.88;24.67;;;8.10;99.90;;;;;;5075490;28;20055;-75
2021/12/17 08:43:27;;;;;;;136.88;24.67;;;8.10;99.90;;;;;;5076115;28;20056;-75
2021/12/17 08:45:53;;;;;;;76.82;23.08;;;8.10;99.90;;;;;;5076137;28;20045;-75
2021/12/17 08:48:19;;;;;;;70.07;23.20;;;8.10;99.90;;;;;;5075589;28;20522;-75
2021/12/17 08:50:45;;;;;;;88.82;21.88;;;8.10;99.90;;;;;;5076336;28;20040;-75
2021/12/17 08:53:11;;;;;;;81.63;20.48;;;8.10;99.90;;;;;;5057794;28;20076;-75
2021/12/17 08:55:37;;;;;;;103.32;21.65;;;8.10;99.90;;;;;;5075395;28;20068;-75
2021/12/17 08:58:03;;;;;;;93.47;20.45;;;8.10;99.90;;;;;;5076137;28;20505;-75
2021/12/17 09:00:29;;;;;;;62.97;19.60;;;8.10;99.90;;;;;;5058148;28;20048;-75
2021/12/17 09:02:59;;;;;;;54.05;16.60;;;8.10;99.90;;;;;;5056956;28;20452;-75
2021/12/17 09:05:25;;;;;;;73.93;19.25;;;8.10;99.90;;;;;;5075987;28;20492;-75
2021/12/17 09:07:51;;;;;;;46.38;16.42;;;8.20;99.90;;;;;;5057869;28;20563;-75
2021/12/17 09:10:21;;;;;;;85.85;20.65;;;8.20;99.90;;;;;;5075123;28;20123;-75
2021/12/17 09:12:48;;;;;;;71.32;19.40;;;8.20;99.90;;;;;;5075955;28;20051;-75
2021/12/17 09:15:14;;;;;;;50.85;17.60;;;8.20;99.90;;;;;;5075492;28;20107;-75
2021/12/17 09:17:40;;;;;;;61.80;18.40;;;8.20;99.90;;;;;;5075340;28;20053;-75
2021/12/17 09:20:07;;;;;;;59.97;20.42;;;8.20;99.90;;;;;;5057426;28;20041;-75
2021/12/17 09:22:34;;;;;;;59.20;19.05;;;8.30;99.90;;;;;;5075193;28;20056;-75
2021/12/17 09:25:00;;;;;;;64.30;18.45;;;8.30;99.90;;;;;;5074787;28;20480;-75
2021/12/17 09:27:25;;;;;;;63.05;17.52;;;8.30;99.90;;;;;;5057719;28;20053;-75
2021/12/17 09:29:51;;;;;;;63.80;19.50;;;8.30;99.90;;;;;;5056706;28;20105;-75
2021/12/17 09:32:17;;;;;;;44.97;16.05;;;8.30;99.90;;;;;;5075619;28;20037;-75
2021/12/17 09:34:42;;;;;;;47.03;17.60;;;8.40;99.90;;;;;;5075345;28;20051;-75
2021/12/17 09:37:08;;;;;;;57.50;17.90;;;8.30;99.90;;;;;;5074805;28;20518;-75
2021/12/17 09:39:34;;;;;;;59.17;18.58;;;8.40;99.90;;;;;;5056980;28;20044;-75
2021/12/17 09:42:00;;;;;;;39.90;15.80;;;8.40;99.90;;;;;;5056282;28;20383;-75
2021/12/17 09:44:26;;;;;;;56.25;17.27;;;8.40;99.90;;;;;;5057170;28;20560;-75
2021/12/17 09:46:57;;;;;;;43.83;16.27;;;8.40;99.90;;;;;;5057244;28;20048;-75
2021/12/17 09:49:23;;;;;;;49.80;17.52;;;8.50;99.90;;;;;;5057219;28;20060;-75
2021/12/17 09:51:49;;;;;;;53.15;17.75;;;8.50;99.90;;;;;;5074511;28;20037;-75
2021/12/17 09:54:16;;;;;;;51.25;17.35;;;8.50;99.90;;;;;;5074841;28;20052;-75
2021/12/17 09:56:42;;;;;;;48.67;16.85;;;8.50;99.90;;;;;;5074691;28;20114;-75
2021/12/17 09:59:10;;;;;;;47.53;16.63;;;8.50;99.90;;;;;;5056636;28;20044;-75
2021/12/17 10:01:40;;;;;;;42.38;15.25;;;8.60;99.90;;;;;;5074879;28;20488;-75
2021/12/17 10:04:24;;;;;;;46.85;16.65;;;8.60;99.90;;;;;;5074496;28;20055;-75
2021/12/17 10:06:50;;;;;;;52.38;17.77;;;8.60;99.90;;;;;;5074559;28;20511;-75
2021/12/17 10:09:16;;;;;;;46.97;17.58;;;8.60;99.90;;;;;;5074614;28;20079;-75
2021/12/17 10:12:05;;;;;;;44.13;16.48;;;8.70;99.90;;;;;;5074568;28;20127;-75
2021/12/17 10:14:31;;;;;;;48.95;16.02;;;8.70;99.90;;;;;;5074295;28;20535;-75
2021/12/17 10:17:12;;;;;;;41.33;15.52;;;8.70;99.90;;;;;;5055920;28;20140;-75
2021/12/17 10:19:49;;;;;;;40.42;15.43;;;8.80;99.90;;;;;;5073944;28;20049;-75
2021/12/17 10:22:18;;;;;;;47.13;16.67;;;8.80;99.90;;;;;;5074465;28;20082;-75
2021/12/17 10:24:57;;;;;;;39.42;16.25;;;8.80;99.90;;;;;;5055937;28;20086;-75
2021/12/17 10:27:27;;;;;;;60.03;17.60;;;8.80;99.90;;;;;;5073781;28;20048;-75
2021/12/17 10:29:54;;;;;;;38.67;15.40;;;8.80;99.90;;;;;;5056598;28;20040;-75
2021/12/17 10:32:23;;;;;;;45.70;15.90;;;8.80;99.90;;;;;;5074026;28;20053;-75
2021/12/17 10:35:19;;;;;;;39.97;15.90;;;8.90;99.90;;;;;;5055503;28;20063;-75
2021/12/17 10:37:55;;;;;;;41.55;15.15;;;8.90;99.90;;;;;;5056256;28;20040;-75
2021/12/17 10:40:28;;;;;;;33.70;14.82;;;8.90;99.90;;;;;;5052169;28;20175;-75
2021/12/17 10:43:09;;;;;;;36.33;15.23;;;8.90;99.90;;;;;;5051294;28;20048;-75
2021/12/17 10:45:38;;;;;;;40.03;14.55;;;9.00;99.90;;;;;;5056285;28;20052;-75
2021/12/17 10:51:17;;;;;;;33.65;14.30;;;9.00;99.90;;;;;;5074018;28;20141;-75
2021/12/17 10:53:55;;;;;;;31.83;14.15;;;9.00;99.90;;;;;;5055206;28;20362;-75
2021/12/17 10:56:29;;;;;;;45.42;14.85;;;9.10;99.90;;;;;;5055091;28;20431;-75
2021/12/17 10:59:12;;;;;;;44.13;15.63;;;9.10;99.90;;;;;;5055871;28;20060;-75
2021/12/17 11:01:44;;;;;;;38.03;14.15;;;9.10;99.90;;;;;;5055484;28;20044;-75
2021/12/17 11:04:15;;;;;;;30.88;13.35;;;9.10;99.90;;;;;;5073988;28;20043;-75
2021/12/17 11:06:46;;;;;;;35.83;14.60;;;9.10;99.90;;;;;;5073326;28;20040;-75
2021/12/17 11:09:37;;;;;;;28.90;14.20;;;9.20;99.90;;;;;;5072958;28;20060;-75
2021/12/17 11:12:29;;;;;;;43.00;13.63;;;9.20;99.90;;;;;;5055701;28;20049;-75
2021/12/17 11:15:17;;;;;;;31.85;13.05;;;9.20;99.90;;;;;;5073071;28;20068;-75
2021/12/17 11:17:45;;;;;;;34.15;12.75;;;9.20;99.90;;;;;;5040162;28;20052;-75
2021/12/17 11:20:21;;;;;;;36.20;13.95;;;9.30;99.90;;;;;;5055586;28;20115;-75
2021/12/17 11:22:48;;;;;;;32.95;11.82;;;9.30;99.90;;;;;;5054932;28;20048;-75
2021/12/17 11:25:17;;;;;;;28.30;12.13;;;9.20;99.90;;;;;;5055584;28;20052;-75
2021/12/17 11:27:43;;;;;;;32.17;12.07;;;9.30;99.90;;;;;;5073304;28;20087;-75
2021/12/17 11:30:13;;;;;;;26.55;11.93;;;9.30;99.90;;;;;;5072876;28;20044;-75
2021/12/17 11:32:42;;;;;;;28.83;12.10;;;9.30;99.90;;;;;;5073321;28;20036;-75
2021/12/17 11:35:08;;;;;;;34.38;12.60;;;9.30;99.90;;;;;;5055112;28;20569;-75
2021/12/17 11:37:34;;;;;;;27.15;11.80;;;9.30;99.90;;;;;;5072760;28;20095;-75
2021/12/17 11:40:09;;;;;;;25.55;11.38;;;9.30;99.90;;;;;;5073143;28;20115;-75
2021/12/17 11:43:14;;;;;;;27.42;11.27;;;9.30;99.90;;;;;;5072907;28;20048;-75
2021/12/17 11:45:40;;;;;;;29.38;12.40;;;9.30;99.90;;;;;;5020440;28;20068;-75
2021/12/17 11:48:18;;;;;;;33.88;11.23;;;9.30;99.90;;;;;;5055320;28;20488;-75
2021/12/17 11:50:46;;;;;;;19.85;9.73;;;9.40;99.90;;;;;;5038334;28;20571;-75
2021/12/17 11:53:21;;;;;;;21.13;9.98;;;9.30;99.90;;;;;;5038840;28;20051;-75
2021/12/17 11:55:55;;;;;;;23.35;10.40;;;9.30;99.90;;;;;;5072531;28;20048;-75
2021/12/17 11:58:52;;;;;;;21.10;10.90;;;9.30;99.90;;;;;;5054634;28;20044;-75
2021/12/17 12:01:46;;;;;;;23.73;10.82;;;9.40;99.90;;;;;;5072649;28;20538;-75
2021/12/17 12:04:41;;;;;;;11.20;7.88;;;9.40;99.90;;;;;;5073054;28;20075;-75
2021/12/17 12:07:16;;;;;;;13.05;7.13;;;9.40;99.90;;;;;;5077221;28;20050;-75
2021/12/17 12:09:56;;;;;;;13.07;7.90;;;9.40;99.90;;;;;;5058487;28;20052;-75
2021/12/17 12:12:44;;;;;;;11.40;7.35;;;9.40;99.90;;;;;;5058518;28;20048;-75
2021/12/17 12:15:20;;;;;;;14.50;8.43;;;9.30;99.90;;;;;;5060511;28;20056;-75
2021/12/17 12:17:58;;;;;;;13.85;8.60;;;9.40;99.90;;;;;;5058864;28;20049;-75
2021/12/17 12:20:50;;;;;;;13.43;8.18;;;9.40;99.90;;;;;;5058510;28;20442;-75
2021/12/17 12:23:32;;;;;;;13.00;7.57;;;9.40;99.90;;;;;;5041980;28;20048;-75
2021/12/17 12:26:04;;;;;;;8.45;6.13;;;9.40;99.90;;;;;;5076006;28;20079;-75
2021/12/17 12:28:45;;;;;;;8.60;6.03;;;9.40;99.90;;;;;;5076796;28;20065;-75
2021/12/17 12:31:19;;;;;;;11.38;7.78;;;9.40;99.90;;;;;;5058830;28;20045;-75
2021/12/17 12:34:00;;;;;;;12.40;7.55;;;9.40;99.90;;;;;;5057931;28;20045;-75
2021/12/17 12:36:50;;;;;;;10.55;7.63;;;9.40;99.90;;;;;;5058298;28;20048;-75
2021/12/17 12:39:25;;;;;;;13.38;8.52;;;9.40;99.90;;;;;;5075856;28;20090;-75
2021/12/17 12:42:11;;;;;;;12.07;7.93;;;9.40;99.90;;;;;;5072930;28;20045;-75
2021/12/17 12:44:39;;;;;;;13.25;8.23;;;9.40;99.90;;;;;;5076277;28;20040;-75
2021/12/17 12:47:07;;;;;;;10.50;7.45;;;9.40;99.90;;;;;;5075722;28;20404;-75
2021/12/17 12:50:03;;;;;;;12.68;8.55;;;9.40;99.90;;;;;;5041520;28;20049;-75
2021/12/17 12:52:41;;;;;;;9.75;6.55;;;9.40;99.90;;;;;;5058444;28;20125;-75
2021/12/17 12:55:18;;;;;;;11.57;7.70;;;9.40;99.90;;;;;;5075231;28;20048;-75
2021/12/17 12:57:50;;;;;;;12.95;8.60;;;9.40;99.90;;;;;;5057841;28;20059;-75
2021/12/17 13:00:21;;;;;;;10.55;8.13;;;9.40;99.90;;;;;;5076024;28;20383;-75
2021/12/17 13:02:50;;;;;;;9.73;7.53;;;9.40;99.90;;;;;;5075538;28;20114;-75
2021/12/17 13:05:17;;;;;;;13.45;8.18;;;9.40;99.90;;;;;;5075847;28;20040;-75
2021/12/17 13:07:48;;;;;;;8.57;6.60;;;9.40;99.90;;;;;;5057826;28;20076;-75
2021/12/17 13:10:22;;;;;;;7.68;6.53;;;9.40;99.90;;;;;;5057773;28;20050;-75
2021/12/17 13:13:07;;;;;;;10.40;5.82;;;9.40;99.90;;;;;;5076079;28;20098;-75
2021/12/17 13:15:43;;;;;;;5.70;4.55;;;9.40;99.90;;;;;;5057053;28;20127;-75
2021/12/17 13:24:05;;;;;;;6.18;4.45;;;9.40;99.90;;;;;;5075320;28;20462;-75
2021/12/17 13:26:31;;;;;;;8.82;5.57;;;9.40;99.90;;;;;;5075224;28;20067;-75
2021/12/17 13:29:00;;;;;;;6.38;5.47;;;9.30;99.90;;;;;;5075207;28;20036;-75
2021/12/17 13:31:39;;;;;;;5.50;5.00;;;9.30;99.90;;;;;;5075678;28;20047;-75
2021/12/17 13:34:40;;;;;;;8.85;5.57;;;9.40;99.90;;;;;;5075351;28;20036;-75
2021/12/17 13:37:16;;;;;;;10.73;6.00;;;9.30;99.90;;;;;;5056755;28;20048;-74
2021/12/17 13:40:13;;;;;;;8.02;6.05;;;9.40;99.90;;;;;;5075032;28;20044;-75
2021/12/17 13:42:47;;;;;;;6.43;5.50;;;9.40;99.90;;;;;;5070844;28;20060;-75
2021/12/17 13:45:16;;;;;;;7.07;5.95;;;9.40;99.90;;;;;;5056778;28;20083;-75
2021/12/17 13:47:51;;;;;;;6.00;5.25;;;9.40;99.90;;;;;;5075050;28;20048;-75
2021/12/17 13:50:44;;;;;;;8.95;5.75;;;9.30;99.90;;;;;;5039782;28;20041;-75
2021/12/17 13:53:15;;;;;;;8.82;5.32;;;9.40;99.90;;;;;;5057518;28;20102;-75
2021/12/17 13:55:46;;;;;;;8.13;5.78;;;9.40;99.90;;;;;;5056879;28;20115;-75
2021/12/17 13:58:19;;;;;;;6.15;5.55;;;9.40;99.90;;;;;;5056419;28;20052;-74
2021/12/17 14:00:55;;;;;;;7.07;6.03;;;9.40;99.90;;;;;;5074906;28;20076;-75
2021/12/17 14:03:33;;;;;;;11.02;6.80;;;9.40;99.90;;;;;;5056708;28;20044;-75
2021/12/17 14:06:18;;;;;;;8.30;6.40;;;9.40;99.90;;;;;;5074434;28;20051;-75
2021/12/17 14:08:45;;;;;;;8.20;6.15;;;9.40;99.90;;;;;;5074689;28;20049;-74
2021/12/17 14:11:18;;;;;;;10.25;6.13;;;9.40;99.90;;;;;;5056188;28;20051;-75
2021/12/17 14:13:44;;;;;;;9.63;6.25;;;9.40;99.90;;;;;;5074808;28;20132;-75
2021/12/17 14:16:10;;;;;;;8.63;5.85;;;9.40;99.90;;;;;;5056343;28;20127;-75
2021/12/17 14:18:35;;;;;;;6.78;6.07;;;9.40;99.90;;;;;;5074058;28;20427;-75
2021/12/17 14:21:04;;;;;;;10.10;5.85;;;9.40;99.90;;;;;;5053474;28;20125;-75
2021/12/17 14:23:32;;;;;;;6.40;5.28;;;9.30;99.90;;;;;;5054296;28;20048;-75
2021/12/17 14:26:05;;;;;;;6.85;6.15;;;9.30;99.90;;;;;;5050827;28;20052;-75
2021/12/17 14:28:36;;;;;;;6.63;6.03;;;9.40;99.90;;;;;;5056462;28;20053;-75
2021/12/17 14:31:04;;;;;;;8.00;6.32;;;9.30;99.90;;;;;;5074226;28;20044;-75
2021/12/17 14:33:34;;;;;;;8.50;6.25;;;9.40;99.90;;;;;;5073572;28;20071;-75
2021/12/17 14:36:15;;;;;;;8.23;6.82;;;9.40;99.90;;;;;;5056487;28;20094;-75
2021/12/17 14:39:02;;;;;;;7.75;6.13;;;9.40;99.90;;;;;;5056136;28;20089;-75
2021/12/17 14:41:37;;;;;;;8.88;6.32;;;9.40;99.90;;;;;;5073329;28;20095;-75
2021/12/17 14:44:33;;;;;;;7.05;5.93;;;9.30;99.90;;;;;;5073789;28;20118;-75
2021/12/17 14:47:15;;;;;;;7.50;6.43;;;9.30;99.90;;;;;;5055636;28;20534;-75
2021/12/17 15:05:14;;;;;;;7.10;5.10;;;9.30;99.90;;;;;;5055506;28;20131;-75
2021/12/17 15:07:40;;;;;;;7.18;5.78;;;9.30;99.90;;;;;;5072629;28;20235;-75
2021/12/17 15:10:09;;;;;;;6.55;5.50;;;9.30;99.90;;;;;;5073696;28;20388;-75
2021/12/17 15:12:37;;;;;;;5.32;4.57;;;9.30;99.90;;;;;;5073308;28;20048;-75
2021/12/17 15:15:16;;;;;;;6.93;6.22;;;9.30;99.90;;;;;;5054942;28;20554;-75
2021/12/17 15:17:43;;;;;;;6.88;5.93;;;9.30;99.90;;;;;;5073636;28;20044;-75
2021/12/17 15:20:10;;;;;;;6.80;5.65;;;9.30;99.90;;;;;;5055515;28;20055;-75
2021/12/17 15:22:37;;;;;;;7.43;5.97;;;9.20;99.90;;;;;;5073068;28;20037;-75
2021/12/17 15:25:04;;;;;;;8.63;6.45;;;9.20;99.90;;;;;;5073217;28;20056;-75
2021/12/17 15:27:33;;;;;;;8.13;5.50;;;9.30;99.90;;;;;;5055387;28;20498;-75
2021/12/17 15:30:00;;;;;;;7.93;6.10;;;9.30;99.90;;;;;;5072740;28;20049;-74
2021/12/17 15:32:26;;;;;;;6.95;5.65;;;9.20;99.90;;;;;;5073487;28;20105;-75
2021/12/17 15:34:53;;;;;;;7.20;5.70;;;9.30;99.90;;;;;;5073360;28;20040;-75
2021/12/17 15:37:19;;;;;;;6.95;5.40;;;9.30;99.90;;;;;;5054886;28;20102;-75
2021/12/17 15:39:45;;;;;;;6.25;5.55;;;9.20;99.90;;;;;;5054432;28;20510;-75
2021/12/17 15:42:11;;;;;;;7.80;5.82;;;9.20;99.90;;;;;;5055698;28;20049;-75
2021/12/17 15:44:37;;;;;;;7.72;5.57;;;9.20;99.90;;;;;;5054730;28;20454;-75
2021/12/17 15:47:05;;;;;;;12.15;5.97;;;9.20;99.90;;;;;;5073202;28;20045;-75
2021/12/17 15:49:31;;;;;;;6.95;5.82;;;9.20;99.90;;;;;;5073045;28;20555;-75
2021/12/17 15:51:57;;;;;;;7.25;6.50;;;9.20;99.90;;;;;;5054948;28;20067;-75
2021/12/17 15:54:23;;;;;;;8.68;5.63;;;9.20;99.90;;;;;;5072824;28;20484;-75
2021/12/17 15:56:49;;;;;;;11.50;6.47;;;9.20;99.90;;;;;;5072557;28;20044;-75
2021/12/17 15:59:15;;;;;;;11.60;6.95;;;9.20;99.90;;;;;;5073307;28;20388;-75
2021/12/17 16:01:41;;;;;;;8.63;5.85;;;9.20;99.90;;;;;;5073069;28;20043;-75
2021/12/17 16:04:07;;;;;;;11.93;7.13;;;9.20;99.90;;;;;;5054762;28;20041;-75
2021/12/17 16:06:32;;;;;;;8.60;6.05;;;9.20;99.90;;;;;;5073253;28;20500;-75
2021/12/17 16:09:01;;;;;;;6.88;6.20;;;9.20;99.90;;;;;;5054915;28;20064;-75
2021/12/17 16:21:56;;;;;;;9.20;6.47;;;9.20;99.90;;;;;;5052749;28;20511;-75